sensor_id;sensor_type;location;lat;lon;timestamp;P1;durP1;ratioP1;P2;durP2;ratioP2
41556;SDS011;27720;51.992;5.890;2023-01-19T00:01:12;17.63;;;9.55;;
41556;SDS011;27720;51.992;5.890;2023-01-19T00:03:38;20.70;;;10.32;;
41556;SDS011;27720;51.992;5.890;2023-01-19T00:06:07;14.65;;;9.57;;
41556;SDS011;27720;51.992;5.890;2023-01-19T00:08:33;19.38;;;9.63;;
41556;SDS011;27720;51.992;5.890;2023-01-19T00:11:00;17.85;;;10.20;;
41556;SDS011;27720;51.992;5.890;2023-01-19T00:13:26;20.27;;;9.90;;
41556;SDS011;27720;51.992;5.890;2023-01-19T00:15:52;18.30;;;11.02;;
41556;SDS011;27720;51.992;5.890;2023-01-19T00:18:19;20.20;;;10.43;;
41556;SDS011;27720;51.992;5.890;2023-01-19T00:20:45;19.33;;;9.18;;
41556;SDS011;27720;51.992;5.890;2023-01-19T00:23:11;15.73;;;9.38;;
41556;SDS011;27720;51.992;5.890;2023-01-19T00:25:38;17.52;;;10.48;;
41556;SDS011;27720;51.992;5.890;2023-01-19T00:28:10;18.10;;;9.73;;
41556;SDS011;27720;51.992;5.890;2023-01-19T00:30:37;17.80;;;10.02;;
41556;SDS011;27720;51.992;5.890;2023-01-19T00:33:03;18.25;;;9.32;;
41556;SDS011;27720;51.992;5.890;2023-01-19T00:35:29;19.38;;;10.23;;
41556;SDS011;27720;51.992;5.890;2023-01-19T00:37:56;19.17;;;9.35;;
41556;SDS011;27720;51.992;5.890;2023-01-19T00:40:22;18.17;;;10.63;;
41556;SDS011;27720;51.992;5.890;2023-01-19T00:42:47;24.23;;;11.30;;
41556;SDS011;27720;51.992;5.890;2023-01-19T00:45:14;20.85;;;10.90;;
41556;SDS011;27720;51.992;5.890;2023-01-19T00:47:42;18.55;;;10.65;;
41556;SDS011;27720;51.992;5.890;2023-01-19T00:50:09;21.98;;;10.30;;
41556;SDS011;27720;51.992;5.890;2023-01-19T00:52:37;16.55;;;9.65;;
41556;SDS011;27720;51.992;5.890;2023-01-19T00:55:03;18.23;;;9.65;;
41556;SDS011;27720;51.992;5.890;2023-01-19T00:57:30;22.52;;;8.95;;
41556;SDS011;27720;51.992;5.890;2023-01-19T00:59:56;23.42;;;11.00;;
41556;SDS011;27720;51.992;5.890;2023-01-19T01:02:21;19.58;;;9.52;;
41556;SDS011;27720;51.992;5.890;2023-01-19T01:04:47;18.20;;;9.23;;
41556;SDS011;27720;51.992;5.890;2023-01-19T01:07:19;15.48;;;9.05;;
41556;SDS011;27720;51.992;5.890;2023-01-19T01:09:45;20.63;;;10.32;;
41556;SDS011;27720;51.992;5.890;2023-01-19T01:12:11;16.80;;;10.10;;
41556;SDS011;27720;51.992;5.890;2023-01-19T01:14:37;17.83;;;9.57;;
41556;SDS011;27720;51.992;5.890;2023-01-19T01:17:03;17.67;;;11.18;;
41556;SDS011;27720;51.992;5.890;2023-01-19T01:19:29;19.17;;;9.57;;
41556;SDS011;27720;51.992;5.890;2023-01-19T01:21:54;19.80;;;11.85;;
41556;SDS011;27720;51.992;5.890;2023-01-19T01:24:20;18.35;;;10.48;;
41556;SDS011;27720;51.992;5.890;2023-01-19T01:26:46;20.05;;;11.40;;
41556;SDS011;27720;51.992;5.890;2023-01-19T01:29:15;22.90;;;11.50;;
41556;SDS011;27720;51.992;5.890;2023-01-19T01:31:41;19.08;;;10.43;;
41556;SDS011;27720;51.992;5.890;2023-01-19T01:34:06;23.92;;;10.18;;
41556;SDS011;27720;51.992;5.890;2023-01-19T01:36:33;16.00;;;9.48;;
41556;SDS011;27720;51.992;5.890;2023-01-19T01:38:59;18.67;;;8.60;;
41556;SDS011;27720;51.992;5.890;2023-01-19T01:41:25;13.55;;;8.80;;
41556;SDS011;27720;51.992;5.890;2023-01-19T01:43:55;17.17;;;10.05;;
41556;SDS011;27720;51.992;5.890;2023-01-19T01:46:32;16.95;;;10.48;;
41556;SDS011;27720;51.992;5.890;2023-01-19T01:49:12;17.95;;;9.18;;
41556;SDS011;27720;51.992;5.890;2023-01-19T01:54:30;15.15;;;8.43;;
41556;SDS011;27720;51.992;5.890;2023-01-19T01:56:59;15.73;;;9.90;;
41556;SDS011;27720;51.992;5.890;2023-01-19T01:59:35;19.10;;;10.77;;
41556;SDS011;27720;51.992;5.890;2023-01-19T02:02:28;17.98;;;9.35;;
41556;SDS011;27720;51.992;5.890;2023-01-19T02:08:08;16.52;;;8.32;;
41556;SDS011;27720;51.992;5.890;2023-01-19T02:11:01;17.05;;;9.27;;
41556;SDS011;27720;51.992;5.890;2023-01-19T02:13:45;16.52;;;8.07;;
41556;SDS011;27720;51.992;5.890;2023-01-19T02:16:12;14.27;;;9.27;;
41556;SDS011;27720;51.992;5.890;2023-01-19T02:18:39;15.30;;;9.00;;
41556;SDS011;27720;51.992;5.890;2023-01-19T02:21:18;19.92;;;8.70;;
41556;SDS011;27720;51.992;5.890;2023-01-19T02:23:57;12.20;;;7.53;;
41556;SDS011;27720;51.992;5.890;2023-01-19T02:26:30;15.70;;;9.75;;
41556;SDS011;27720;51.992;5.890;2023-01-19T02:29:01;15.88;;;8.98;;
41556;SDS011;27720;51.992;5.890;2023-01-19T02:31:29;12.40;;;8.20;;
41556;SDS011;27720;51.992;5.890;2023-01-19T02:33:57;12.85;;;7.90;;
41556;SDS011;27720;51.992;5.890;2023-01-19T02:36:29;16.80;;;8.43;;
41556;SDS011;27720;51.992;5.890;2023-01-19T02:38:58;13.38;;;7.78;;
41556;SDS011;27720;51.992;5.890;2023-01-19T02:41:27;16.27;;;7.82;;
41556;SDS011;27720;51.992;5.890;2023-01-19T02:43:57;15.95;;;8.75;;
41556;SDS011;27720;51.992;5.890;2023-01-19T02:46:23;16.60;;;8.95;;
41556;SDS011;27720;51.992;5.890;2023-01-19T02:48:49;14.52;;;7.97;;
41556;SDS011;27720;51.992;5.890;2023-01-19T02:51:22;16.70;;;8.70;;
41556;SDS011;27720;51.992;5.890;2023-01-19T02:53:55;11.65;;;7.47;;
41556;SDS011;27720;51.992;5.890;2023-01-19T03:04:49;13.30;;;7.47;;
41556;SDS011;27720;51.992;5.890;2023-01-19T03:12:32;12.35;;;7.57;;
41556;SDS011;27720;51.992;5.890;2023-01-19T03:15:08;11.23;;;6.10;;
41556;SDS011;27720;51.992;5.890;2023-01-19T03:17:42;10.07;;;6.25;;
41556;SDS011;27720;51.992;5.890;2023-01-19T03:20:12;9.55;;;5.45;;
41556;SDS011;27720;51.992;5.890;2023-01-19T03:22:40;8.30;;;5.45;;
41556;SDS011;27720;51.992;5.890;2023-01-19T03:25:07;7.25;;;5.28;;
41556;SDS011;27720;51.992;5.890;2023-01-19T03:27:37;9.00;;;5.35;;
41556;SDS011;27720;51.992;5.890;2023-01-19T03:30:07;7.93;;;4.95;;
41556;SDS011;27720;51.992;5.890;2023-01-19T03:32:47;11.85;;;5.13;;
41556;SDS011;27720;51.992;5.890;2023-01-19T03:35:20;9.50;;;4.47;;
41556;SDS011;27720;51.992;5.890;2023-01-19T03:37:49;7.07;;;3.95;;
41556;SDS011;27720;51.992;5.890;2023-01-19T03:40:18;5.35;;;3.60;;
41556;SDS011;27720;51.992;5.890;2023-01-19T03:42:44;4.93;;;3.20;;
41556;SDS011;27720;51.992;5.890;2023-01-19T03:45:11;3.78;;;2.72;;
41556;SDS011;27720;51.992;5.890;2023-01-19T03:47:38;5.70;;;3.30;;
41556;SDS011;27720;51.992;5.890;2023-01-19T03:50:06;5.72;;;2.63;;
41556;SDS011;27720;51.992;5.890;2023-01-19T03:52:38;4.93;;;2.35;;
41556;SDS011;27720;51.992;5.890;2023-01-19T03:55:03;4.55;;;2.72;;
41556;SDS011;27720;51.992;5.890;2023-01-19T03:57:30;2.75;;;1.80;;
41556;SDS011;27720;51.992;5.890;2023-01-19T03:59:56;2.13;;;1.60;;
41556;SDS011;27720;51.992;5.890;2023-01-19T04:02:22;3.38;;;2.03;;
41556;SDS011;27720;51.992;5.890;2023-01-19T04:04:48;1.85;;;1.23;;
41556;SDS011;27720;51.992;5.890;2023-01-19T04:07:15;2.30;;;1.35;;
41556;SDS011;27720;51.992;5.890;2023-01-19T04:09:41;3.42;;;1.60;;
41556;SDS011;27720;51.992;5.890;2023-01-19T04:12:06;1.58;;;1.08;;
41556;SDS011;27720;51.992;5.890;2023-01-19T04:14:32;1.90;;;1.13;;
41556;SDS011;27720;51.992;5.890;2023-01-19T04:16:58;3.70;;;0.95;;
41556;SDS011;27720;51.992;5.890;2023-01-19T04:19:24;1.75;;;0.93;;
41556;SDS011;27720;51.992;5.890;2023-01-19T04:21:50;2.40;;;1.05;;
41556;SDS011;27720;51.992;5.890;2023-01-19T04:24:16;2.25;;;1.13;;
41556;SDS011;27720;51.992;5.890;2023-01-19T04:26:42;1.58;;;0.90;;
41556;SDS011;27720;51.992;5.890;2023-01-19T04:29:08;1.45;;;1.08;;
41556;SDS011;27720;51.992;5.890;2023-01-19T04:31:34;0.70;;;0.70;;
41556;SDS011;27720;51.992;5.890;2023-01-19T04:34:01;1.70;;;0.70;;
41556;SDS011;27720;51.992;5.890;2023-01-19T04:36:27;1.65;;;0.77;;
41556;SDS011;27720;51.992;5.890;2023-01-19T04:38:53;1.25;;;1.13;;
41556;SDS011;27720;51.992;5.890;2023-01-19T04:41:19;1.35;;;1.15;;
41556;SDS011;27720;51.992;5.890;2023-01-19T04:43:45;1.63;;;0.63;;
41556;SDS011;27720;51.992;5.890;2023-01-19T04:46:12;2.70;;;1.10;;
41556;SDS011;27720;51.992;5.890;2023-01-19T04:48:38;1.58;;;0.80;;
41556;SDS011;27720;51.992;5.890;2023-01-19T04:51:04;1.15;;;0.70;;
41556;SDS011;27720;51.992;5.890;2023-01-19T04:53:30;1.88;;;0.70;;
41556;SDS011;27720;51.992;5.890;2023-01-19T04:55:56;1.73;;;1.10;;
41556;SDS011;27720;51.992;5.890;2023-01-19T04:58:23;0.77;;;0.60;;
41556;SDS011;27720;51.992;5.890;2023-01-19T05:00:49;1.80;;;1.00;;
41556;SDS011;27720;51.992;5.890;2023-01-19T05:03:16;1.35;;;1.08;;
41556;SDS011;27720;51.992;5.890;2023-01-19T05:05:43;2.47;;;1.13;;
41556;SDS011;27720;51.992;5.890;2023-01-19T05:08:09;1.35;;;0.98;;
41556;SDS011;27720;51.992;5.890;2023-01-19T05:10:35;2.03;;;1.17;;
41556;SDS011;27720;51.992;5.890;2023-01-19T05:13:01;1.50;;;0.90;;
41556;SDS011;27720;51.992;5.890;2023-01-19T05:15:27;3.33;;;1.52;;
41556;SDS011;27720;51.992;5.890;2023-01-19T05:17:53;6.45;;;1.25;;
41556;SDS011;27720;51.992;5.890;2023-01-19T05:20:22;3.28;;;1.80;;
41556;SDS011;27720;51.992;5.890;2023-01-19T05:22:49;3.63;;;1.60;;
41556;SDS011;27720;51.992;5.890;2023-01-19T05:25:17;3.08;;;1.55;;
41556;SDS011;27720;51.992;5.890;2023-01-19T05:27:43;5.13;;;1.35;;
41556;SDS011;27720;51.992;5.890;2023-01-19T05:30:10;4.45;;;1.20;;
41556;SDS011;27720;51.992;5.890;2023-01-19T05:32:37;1.95;;;1.02;;
41556;SDS011;27720;51.992;5.890;2023-01-19T05:35:03;3.00;;;1.80;;
41556;SDS011;27720;51.992;5.890;2023-01-19T05:37:29;5.32;;;1.05;;
41556;SDS011;27720;51.992;5.890;2023-01-19T05:39:56;1.65;;;0.95;;
41556;SDS011;27720;51.992;5.890;2023-01-19T05:42:22;2.45;;;1.00;;
41556;SDS011;27720;51.992;5.890;2023-01-19T05:44:48;1.27;;;0.95;;
41556;SDS011;27720;51.992;5.890;2023-01-19T05:47:14;2.17;;;0.90;;
41556;SDS011;27720;51.992;5.890;2023-01-19T05:49:40;3.35;;;1.42;;
41556;SDS011;27720;51.992;5.890;2023-01-19T05:52:06;1.05;;;0.75;;
41556;SDS011;27720;51.992;5.890;2023-01-19T05:54:31;1.58;;;0.88;;
41556;SDS011;27720;51.992;5.890;2023-01-19T05:56:57;0.73;;;0.65;;
41556;SDS011;27720;51.992;5.890;2023-01-19T05:59:23;2.38;;;1.17;;
41556;SDS011;27720;51.992;5.890;2023-01-19T06:01:52;2.72;;;0.98;;
41556;SDS011;27720;51.992;5.890;2023-01-19T06:04:18;1.70;;;0.90;;
41556;SDS011;27720;51.992;5.890;2023-01-19T06:06:47;1.73;;;1.17;;
41556;SDS011;27720;51.992;5.890;2023-01-19T06:09:14;8.18;;;0.90;;
41556;SDS011;27720;51.992;5.890;2023-01-19T06:11:41;1.27;;;0.73;;
41556;SDS011;27720;51.992;5.890;2023-01-19T06:14:08;5.97;;;1.13;;
41556;SDS011;27720;51.992;5.890;2023-01-19T06:16:35;2.30;;;1.08;;
41556;SDS011;27720;51.992;5.890;2023-01-19T06:19:00;1.88;;;0.95;;
41556;SDS011;27720;51.992;5.890;2023-01-19T06:21:26;8.18;;;1.17;;
41556;SDS011;27720;51.992;5.890;2023-01-19T06:23:52;7.72;;;1.10;;
41556;SDS011;27720;51.992;5.890;2023-01-19T06:26:18;4.70;;;0.93;;
41556;SDS011;27720;51.992;5.890;2023-01-19T06:28:43;10.30;;;1.40;;
41556;SDS011;27720;51.992;5.890;2023-01-19T06:31:10;4.07;;;0.75;;
41556;SDS011;27720;51.992;5.890;2023-01-19T06:33:36;5.57;;;0.98;;
41556;SDS011;27720;51.992;5.890;2023-01-19T06:36:02;9.80;;;1.23;;
41556;SDS011;27720;51.992;5.890;2023-01-19T06:38:31;2.88;;;0.85;;
41556;SDS011;27720;51.992;5.890;2023-01-19T06:40:57;1.38;;;0.88;;
41556;SDS011;27720;51.992;5.890;2023-01-19T06:43:23;3.17;;;1.00;;
41556;SDS011;27720;51.992;5.890;2023-01-19T06:45:50;1.15;;;0.63;;
41556;SDS011;27720;51.992;5.890;2023-01-19T06:48:16;2.50;;;1.00;;
41556;SDS011;27720;51.992;5.890;2023-01-19T06:50:43;7.28;;;1.25;;
41556;SDS011;27720;51.992;5.890;2023-01-19T06:53:10;2.92;;;1.00;;
41556;SDS011;27720;51.992;5.890;2023-01-19T06:55:36;4.65;;;1.00;;
41556;SDS011;27720;51.992;5.890;2023-01-19T06:58:03;8.75;;;1.27;;
41556;SDS011;27720;51.992;5.890;2023-01-19T07:00:30;3.55;;;1.20;;
41556;SDS011;27720;51.992;5.890;2023-01-19T07:02:56;4.72;;;1.13;;
41556;SDS011;27720;51.992;5.890;2023-01-19T07:05:22;5.07;;;1.60;;
41556;SDS011;27720;51.992;5.890;2023-01-19T07:07:55;5.80;;;1.60;;
41556;SDS011;27720;51.992;5.890;2023-01-19T07:10:22;7.63;;;1.73;;
41556;SDS011;27720;51.992;5.890;2023-01-19T07:12:48;5.43;;;1.83;;
41556;SDS011;27720;51.992;5.890;2023-01-19T07:15:15;4.20;;;1.60;;
41556;SDS011;27720;51.992;5.890;2023-01-19T07:17:43;6.28;;;1.80;;
41556;SDS011;27720;51.992;5.890;2023-01-19T07:20:09;7.10;;;1.85;;
41556;SDS011;27720;51.992;5.890;2023-01-19T07:22:39;9.80;;;1.70;;
41556;SDS011;27720;51.992;5.890;2023-01-19T07:25:07;9.70;;;2.15;;
41556;SDS011;27720;51.992;5.890;2023-01-19T07:27:33;6.43;;;1.35;;
41556;SDS011;27720;51.992;5.890;2023-01-19T07:29:59;6.63;;;1.38;;
41556;SDS011;27720;51.992;5.890;2023-01-19T07:32:25;10.10;;;2.03;;
41556;SDS011;27720;51.992;5.890;2023-01-19T07:34:52;15.05;;;2.13;;
41556;SDS011;27720;51.992;5.890;2023-01-19T07:37:18;9.13;;;1.77;;
41556;SDS011;27720;51.992;5.890;2023-01-19T07:39:44;9.02;;;1.90;;
41556;SDS011;27720;51.992;5.890;2023-01-19T07:42:09;5.40;;;1.48;;
41556;SDS011;27720;51.992;5.890;2023-01-19T07:44:35;6.22;;;1.67;;
41556;SDS011;27720;51.992;5.890;2023-01-19T07:47:01;4.85;;;2.33;;
41556;SDS011;27720;51.992;5.890;2023-01-19T07:49:27;9.13;;;2.33;;
41556;SDS011;27720;51.992;5.890;2023-01-19T07:51:53;4.93;;;2.03;;
41556;SDS011;27720;51.992;5.890;2023-01-19T07:54:20;6.97;;;1.95;;
41556;SDS011;27720;51.992;5.890;2023-01-19T07:56:49;9.98;;;2.47;;
41556;SDS011;27720;51.992;5.890;2023-01-19T07:59:18;8.30;;;2.97;;
41556;SDS011;27720;51.992;5.890;2023-01-19T08:01:44;5.10;;;2.75;;
41556;SDS011;27720;51.992;5.890;2023-01-19T08:04:10;7.40;;;2.60;;
41556;SDS011;27720;51.992;5.890;2023-01-19T08:06:36;5.38;;;2.55;;
41556;SDS011;27720;51.992;5.890;2023-01-19T08:09:03;8.10;;;2.88;;
41556;SDS011;27720;51.992;5.890;2023-01-19T08:11:31;9.35;;;3.17;;
41556;SDS011;27720;51.992;5.890;2023-01-19T08:13:57;6.95;;;3.22;;
41556;SDS011;27720;51.992;5.890;2023-01-19T08:16:23;5.65;;;2.53;;
41556;SDS011;27720;51.992;5.890;2023-01-19T08:18:49;5.15;;;2.70;;
41556;SDS011;27720;51.992;5.890;2023-01-19T08:21:15;6.32;;;2.95;;
41556;SDS011;27720;51.992;5.890;2023-01-19T08:23:41;5.72;;;2.50;;
41556;SDS011;27720;51.992;5.890;2023-01-19T08:26:20;5.25;;;2.53;;
41556;SDS011;27720;51.992;5.890;2023-01-19T08:28:58;10.18;;;3.45;;
41556;SDS011;27720;51.992;5.890;2023-01-19T08:31:38;4.57;;;2.55;;
41556;SDS011;27720;51.992;5.890;2023-01-19T08:34:04;6.22;;;2.90;;
41556;SDS011;27720;51.992;5.890;2023-01-19T08:36:30;6.82;;;3.63;;
41556;SDS011;27720;51.992;5.890;2023-01-19T08:38:56;17.52;;;3.15;;
41556;SDS011;27720;51.992;5.890;2023-01-19T08:41:22;6.80;;;3.80;;
41556;SDS011;27720;51.992;5.890;2023-01-19T08:43:48;10.73;;;4.18;;
41556;SDS011;27720;51.992;5.890;2023-01-19T08:46:14;11.25;;;3.92;;
41556;SDS011;27720;51.992;5.890;2023-01-19T08:48:46;7.88;;;3.90;;
41556;SDS011;27720;51.992;5.890;2023-01-19T08:51:15;5.80;;;3.15;;
41556;SDS011;27720;51.992;5.890;2023-01-19T08:53:41;8.38;;;3.08;;
41556;SDS011;27720;51.992;5.890;2023-01-19T08:56:08;4.75;;;2.53;;
41556;SDS011;27720;51.992;5.890;2023-01-19T08:58:38;8.57;;;3.58;;
41556;SDS011;27720;51.992;5.890;2023-01-19T09:01:05;10.05;;;3.75;;
41556;SDS011;27720;51.992;5.890;2023-01-19T09:03:35;10.18;;;3.65;;
41556;SDS011;27720;51.992;5.890;2023-01-19T09:06:05;10.98;;;4.10;;
41556;SDS011;27720;51.992;5.890;2023-01-19T09:08:31;13.02;;;4.72;;
41556;SDS011;27720;51.992;5.890;2023-01-19T09:10:57;12.25;;;4.30;;
41556;SDS011;27720;51.992;5.890;2023-01-19T09:13:26;7.60;;;4.18;;
41556;SDS011;27720;51.992;5.890;2023-01-19T09:15:52;16.17;;;4.22;;
41556;SDS011;27720;51.992;5.890;2023-01-19T09:18:18;11.32;;;3.17;;
41556;SDS011;27720;51.992;5.890;2023-01-19T09:20:46;9.38;;;4.28;;
41556;SDS011;27720;51.992;5.890;2023-01-19T09:23:15;8.55;;;3.35;;
41556;SDS011;27720;51.992;5.890;2023-01-19T09:25:43;9.48;;;3.40;;
41556;SDS011;27720;51.992;5.890;2023-01-19T09:28:11;8.65;;;3.33;;
41556;SDS011;27720;51.992;5.890;2023-01-19T09:30:39;8.68;;;3.90;;
41556;SDS011;27720;51.992;5.890;2023-01-19T09:33:11;8.93;;;3.58;;
41556;SDS011;27720;51.992;5.890;2023-01-19T09:35:42;13.73;;;5.40;;
41556;SDS011;27720;51.992;5.890;2023-01-19T09:38:12;18.52;;;4.65;;
41556;SDS011;27720;51.992;5.890;2023-01-19T09:40:43;9.90;;;4.50;;
41556;SDS011;27720;51.992;5.890;2023-01-19T09:45:48;8.68;;;4.43;;
41556;SDS011;27720;51.992;5.890;2023-01-19T09:48:25;10.68;;;4.28;;
41556;SDS011;27720;51.992;5.890;2023-01-19T09:50:53;6.97;;;3.22;;
41556;SDS011;27720;51.992;5.890;2023-01-19T09:53:47;4.88;;;2.40;;
41556;SDS011;27720;51.992;5.890;2023-01-19T09:56:18;11.25;;;3.05;;
41556;SDS011;27720;51.992;5.890;2023-01-19T09:58:45;5.57;;;3.17;;
41556;SDS011;27720;51.992;5.890;2023-01-19T10:01:21;8.75;;;3.38;;
41556;SDS011;27720;51.992;5.890;2023-01-19T10:12:28;14.23;;;2.25;;
41556;SDS011;27720;51.992;5.890;2023-01-19T10:15:25;12.00;;;3.65;;
41556;SDS011;27720;51.992;5.890;2023-01-19T10:20:25;4.13;;;2.05;;
41556;SDS011;27720;51.992;5.890;2023-01-19T10:22:57;6.53;;;2.03;;
41556;SDS011;27720;51.992;5.890;2023-01-19T10:25:24;3.92;;;1.90;;
41556;SDS011;27720;51.992;5.890;2023-01-19T10:27:50;8.98;;;2.17;;
41556;SDS011;27720;51.992;5.890;2023-01-19T10:30:26;8.20;;;1.88;;
41556;SDS011;27720;51.992;5.890;2023-01-19T10:32:54;8.48;;;2.10;;
41556;SDS011;27720;51.992;5.890;2023-01-19T10:35:21;12.90;;;2.17;;
41556;SDS011;27720;51.992;5.890;2023-01-19T10:37:55;10.82;;;1.73;;
41556;SDS011;27720;51.992;5.890;2023-01-19T10:40:26;7.35;;;1.58;;
41556;SDS011;27720;51.992;5.890;2023-01-19T10:42:56;7.80;;;2.17;;
41556;SDS011;27720;51.992;5.890;2023-01-19T10:45:23;9.63;;;2.58;;
41556;SDS011;27720;51.992;5.890;2023-01-19T10:47:52;4.47;;;1.75;;
41556;SDS011;27720;51.992;5.890;2023-01-19T10:52:51;6.55;;;2.25;;
41556;SDS011;27720;51.992;5.890;2023-01-19T10:55:28;9.05;;;2.17;;
41556;SDS011;27720;51.992;5.890;2023-01-19T10:57:56;6.13;;;2.75;;
41556;SDS011;27720;51.992;5.890;2023-01-19T11:00:36;13.45;;;3.50;;
41556;SDS011;27720;51.992;5.890;2023-01-19T11:03:27;12.52;;;4.13;;
41556;SDS011;27720;51.992;5.890;2023-01-19T11:06:37;9.73;;;3.63;;
41556;SDS011;27720;51.992;5.890;2023-01-19T11:08:49;8.38;;;4.03;;
41556;SDS011;27720;51.992;5.890;2023-01-19T11:11:17;11.05;;;4.32;;
41556;SDS011;27720;51.992;5.890;2023-01-19T11:13:46;13.80;;;5.57;;
41556;SDS011;27720;51.992;5.890;2023-01-19T11:16:34;13.30;;;5.57;;
41556;SDS011;27720;51.992;5.890;2023-01-19T11:19:02;11.40;;;4.93;;
41556;SDS011;27720;51.992;5.890;2023-01-19T11:21:39;14.85;;;5.63;;
41556;SDS011;27720;51.992;5.890;2023-01-19T11:24:05;15.23;;;6.13;;
41556;SDS011;27720;51.992;5.890;2023-01-19T11:26:56;13.48;;;4.88;;
41556;SDS011;27720;51.992;5.890;2023-01-19T11:29:27;15.60;;;5.57;;
41556;SDS011;27720;51.992;5.890;2023-01-19T11:32:08;14.90;;;6.72;;
41556;SDS011;27720;51.992;5.890;2023-01-19T11:34:43;15.27;;;5.93;;
41556;SDS011;27720;51.992;5.890;2023-01-19T11:39:48;17.10;;;4.60;;
41556;SDS011;27720;51.992;5.890;2023-01-19T11:42:16;12.20;;;4.35;;
